Terminal Aerodrome Forecast
Issued by NWS Chicago, IL

Home | Current Version | Previous Version | Text Only | Print | Product List | Glossary Off
Versions: 1 2 3 4 5 6 7 8 9 10 11 12 13 14 15 16 17 18 19 20 21 22 23 24 25 26 27 28 29 30 31 32

000
FTUS43 KLOT 281500 AAB
TAFRFD
TAF AMD
KRFD 281555Z 2816/2912 12008KT P6SM SCT030 BKN120
     FM281800 12010KT P6SM VCSH BKN050 OVC080
      TEMPO 2821/2901 SHRA OVC050
     FM290100 12007KT P6SM VCSH OVC050=

USA.gov is the U.S. government's official web portal to all federal, state and local government web resources and services.